Time;durP1;ratioP1;P1;durP2;ratioP2;P2;SDS_P1;SDS_P2;PMS_P1;PMS_P2;Temp;Humidity;BMP_temperature;BMP_pressure;BME280_temperature;BME280_humidity;BME280_pressure;Samples;Min_cycle;Max_cycle;Signal;HPM_P1;HPM_P2
2023/08/20 00:00:24;;;;;;;10.27;9.37;;;24.50;99.90;;;;;;10435625;28;20194;-84
2023/08/20 00:05:27;;;;;;;10.07;9.27;;;24.50;99.90;;;;;;10441556;28;20754;-84
2023/08/20 00:10:31;;;;;;;10.87;9.77;;;24.50;99.90;;;;;;10482584;28;20266;-84
2023/08/20 00:15:33;;;;;;;10.57;9.77;;;24.50;99.90;;;;;;10469402;28;20229;-84
2023/08/20 00:20:36;;;;;;;10.53;9.73;;;24.50;99.90;;;;;;10435964;28;20224;-84
2023/08/20 00:25:40;;;;;;;11.20;10.30;;;24.50;99.90;;;;;;10452736;28;20225;-84
2023/08/20 00:30:42;;;;;;;11.23;9.20;;;24.50;99.90;;;;;;10465438;28;20216;-84
2023/08/20 00:35:46;;;;;;;10.30;9.47;;;24.50;99.90;;;;;;10442937;28;20217;-84
2023/08/20 00:40:51;;;;;;;10.77;9.90;;;24.60;99.90;;;;;;10461950;28;20205;-85
2023/08/20 00:45:53;;;;;;;10.83;9.83;;;24.50;99.90;;;;;;10439543;28;20218;-84
2023/08/20 00:50:55;;;;;;;10.00;9.10;;;24.50;99.90;;;;;;10477190;28;20246;-84
2023/08/20 00:56:01;;;;;;;11.37;10.20;;;24.50;99.90;;;;;;10454240;28;20222;-84
2023/08/20 01:01:04;;;;;;;10.03;9.23;;;24.50;99.90;;;;;;10456747;28;20230;-84
2023/08/20 01:06:18;;;;;;;10.57;9.77;;;24.40;99.90;;;;;;10421874;28;20230;-84
2023/08/20 01:11:27;;;;;;;9.67;8.90;;;24.40;99.90;;;;;;10459819;28;20206;-84
2023/08/20 01:16:29;;;;;;;9.60;8.87;;;24.40;99.90;;;;;;10426253;28;20248;-84
2023/08/20 01:21:40;;;;;;;9.90;9.20;;;24.40;99.90;;;;;;10441955;28;20252;-84
2023/08/20 01:27:00;;;;;;;10.70;9.80;;;24.40;99.90;;;;;;10441613;28;20753;-84
2023/08/20 01:32:05;;;;;;;12.03;10.93;;;24.30;99.90;;;;;;10399719;28;20666;-84
2023/08/20 01:37:07;;;;;;;10.63;9.83;;;24.30;99.90;;;;;;10411326;28;20878;-84
2023/08/20 01:42:11;;;;;;;13.03;10.30;;;24.30;99.90;;;;;;10457687;28;20206;-84
2023/08/20 01:47:15;;;;;;;12.83;10.50;;;24.30;99.90;;;;;;10441183;28;20229;-84
2023/08/20 01:52:17;;;;;;;11.07;10.13;;;24.30;99.90;;;;;;10457566;28;20213;-84
2023/08/20 01:57:19;;;;;;;11.27;10.40;;;24.20;99.90;;;;;;10439831;28;20194;-84
2023/08/20 02:02:23;;;;;;;11.10;10.33;;;24.20;99.90;;;;;;10479326;28;20214;-85
2023/08/20 02:07:25;;;;;;;11.30;10.40;;;24.20;99.90;;;;;;10488912;28;20229;-84
2023/08/20 02:12:27;;;;;;;11.70;10.60;;;24.10;99.90;;;;;;10473501;28;20237;-84
2023/08/20 02:17:31;;;;;;;12.53;11.33;;;24.10;99.90;;;;;;10487605;28;20221;-84
2023/08/20 02:22:34;;;;;;;11.47;10.57;;;24.10;99.90;;;;;;10441139;28;20347;-84
2023/08/20 02:27:36;;;;;;;12.27;11.37;;;24.10;99.90;;;;;;10439699;28;20218;-84
2023/08/20 02:32:39;;;;;;;12.00;10.90;;;24.00;99.90;;;;;;10438799;28;20217;-84
2023/08/20 02:37:42;;;;;;;12.40;11.40;;;24.00;99.90;;;;;;10450972;28;20201;-85
2023/08/20 02:42:44;;;;;;;12.73;11.53;;;23.90;99.90;;;;;;10454923;28;20222;-84
2023/08/20 02:47:47;;;;;;;12.10;10.90;;;23.90;99.90;;;;;;10439118;28;20241;-84
2023/08/20 02:52:49;;;;;;;11.70;10.80;;;23.90;99.90;;;;;;10455275;28;20225;-84
2023/08/20 02:57:51;;;;;;;12.97;11.70;;;23.80;99.90;;;;;;10446939;28;20193;-84
2023/08/20 03:02:55;;;;;;;13.23;11.93;;;23.80;99.90;;;;;;10454322;28;20580;-85
2023/08/20 03:07:57;;;;;;;13.80;12.67;;;23.80;99.90;;;;;;10438194;28;20291;-84
2023/08/20 03:12:59;;;;;;;12.03;11.13;;;23.80;99.90;;;;;;10438806;28;20206;-84
2023/08/20 03:18:03;;;;;;;12.03;11.07;;;23.80;99.90;;;;;;10457179;28;20281;-84
2023/08/20 03:23:05;;;;;;;13.00;11.90;;;23.70;99.90;;;;;;10437530;28;20571;-85
2023/08/20 03:28:08;;;;;;;11.33;10.43;;;23.70;99.90;;;;;;10457782;28;20678;-84
2023/08/20 03:33:13;;;;;;;12.93;11.83;;;23.70;99.90;;;;;;10438896;28;20226;-84
2023/08/20 03:38:16;;;;;;;12.80;11.70;;;23.70;99.90;;;;;;10457364;28;20257;-84
2023/08/20 03:43:18;;;;;;;13.07;11.77;;;23.70;99.90;;;;;;10437191;28;20252;-84
2023/08/20 03:48:22;;;;;;;12.50;11.37;;;23.60;99.90;;;;;;10438141;28;20198;-84
2023/08/20 03:53:24;;;;;;;12.03;11.00;;;23.60;99.90;;;;;;10436806;28;20247;-84
2023/08/20 03:58:26;;;;;;;13.33;12.20;;;23.60;99.90;;;;;;10436392;28;20221;-84
2023/08/20 04:03:30;;;;;;;12.97;11.87;;;23.50;99.90;;;;;;10436301;28;20300;-84
2023/08/20 04:08:32;;;;;;;12.80;11.87;;;23.50;99.90;;;;;;10451647;28;20206;-85
2023/08/20 04:13:34;;;;;;;12.67;11.67;;;23.40;99.90;;;;;;10443881;28;20213;-84
2023/08/20 04:18:38;;;;;;;12.20;11.30;;;23.40;99.90;;;;;;10436315;28;20206;-85
2023/08/20 04:23:42;;;;;;;14.60;13.20;;;23.40;99.90;;;;;;10443501;28;20644;-84
2023/08/20 04:28:45;;;;;;;12.97;12.00;;;23.40;99.90;;;;;;10463128;28;20289;-84
2023/08/20 04:33:48;;;;;;;16.03;11.17;;;23.40;99.90;;;;;;10419518;28;20219;-85
2023/08/20 04:38:55;;;;;;;11.93;10.93;;;23.40;99.90;;;;;;10428989;28;20193;-84
2023/08/20 04:43:57;;;;;;;12.93;11.73;;;23.30;99.90;;;;;;10461403;28;20309;-84
2023/08/20 04:49:03;;;;;;;15.17;12.60;;;23.30;99.90;;;;;;10451059;28;20621;-84
2023/08/20 04:54:05;;;;;;;12.23;11.23;;;23.40;99.90;;;;;;10443785;28;20237;-84
2023/08/20 04:59:07;;;;;;;13.10;12.10;;;23.40;99.90;;;;;;10443234;28;20208;-84
2023/08/20 05:04:46;;;;;;;12.53;11.53;;;23.40;99.90;;;;;;10445560;28;20225;-84
2023/08/20 05:09:50;;;;;;;12.47;11.37;;;23.40;99.90;;;;;;10446840;28;20221;-84
2023/08/20 05:14:53;;;;;;;14.13;12.73;;;23.40;99.90;;;;;;10439709;28;20214;-84
2023/08/20 05:19:57;;;;;;;13.90;12.70;;;23.40;99.90;;;;;;10440279;28;20200;-83
2023/08/20 05:24:59;;;;;;;11.90;10.90;;;23.50;99.90;;;;;;10439976;28;20416;-83
2023/08/20 05:30:03;;;;;;;11.93;11.03;;;23.50;99.90;;;;;;10457639;28;20205;-84
2023/08/20 05:35:08;;;;;;;12.27;11.30;;;23.50;99.90;;;;;;10438231;28;20296;-84
2023/08/20 05:40:12;;;;;;;12.50;11.50;;;23.50;99.90;;;;;;10438617;28;20294;-83
2023/08/20 05:45:15;;;;;;;12.83;11.73;;;23.60;99.90;;;;;;10438957;28;20230;-83
2023/08/20 05:50:18;;;;;;;12.90;11.73;;;23.60;99.90;;;;;;10439190;28;20202;-82
2023/08/20 05:55:21;;;;;;;12.70;11.50;;;23.70;99.90;;;;;;10439571;28;20214;-84
2023/08/20 06:00:23;;;;;;;13.93;11.23;;;23.80;99.90;;;;;;10438105;28;20193;-84
2023/08/20 06:05:27;;;;;;;12.10;11.10;;;23.80;99.90;;;;;;10416028;28;20245;-84
2023/08/20 06:10:29;;;;;;;13.00;11.80;;;23.90;99.90;;;;;;10453811;28;20201;-83
2023/08/20 06:15:31;;;;;;;12.40;11.30;;;23.90;99.90;;;;;;10457854;28;20206;-84
2023/08/20 06:20:35;;;;;;;12.87;11.67;;;24.10;99.90;;;;;;10439734;28;20201;-83
2023/08/20 06:25:37;;;;;;;12.77;11.57;;;24.30;99.90;;;;;;10459700;28;20237;-84
2023/08/20 06:30:39;;;;;;;13.10;11.80;;;24.40;99.90;;;;;;10458728;28;20196;-83
2023/08/20 06:35:42;;;;;;;12.57;11.43;;;24.70;99.90;;;;;;10463175;28;20209;-83
2023/08/20 06:40:44;;;;;;;12.67;11.43;;;24.90;99.90;;;;;;10441426;28;20208;-84
2023/08/20 06:45:46;;;;;;;11.17;10.27;;;25.00;99.90;;;;;;10460360;28;20240;-85
2023/08/20 06:50:50;;;;;;;12.30;11.20;;;25.00;99.90;;;;;;10458047;28;20205;-83
2023/08/20 06:55:52;;;;;;;12.43;11.43;;;25.00;99.90;;;;;;10459035;28;20245;-83
2023/08/20 07:00:54;;;;;;;12.77;11.47;;;25.20;99.90;;;;;;10441839;28;20257;-84
2023/08/20 07:05:58;;;;;;;12.50;11.33;;;25.30;99.90;;;;;;10439771;28;20256;-84
2023/08/20 07:11:00;;;;;;;12.17;11.17;;;25.50;99.90;;;;;;10459700;28;20646;-83
2023/08/20 07:16:02;;;;;;;12.43;11.27;;;25.60;99.90;;;;;;10460778;28;20218;-85
2023/08/20 07:21:07;;;;;;;11.80;10.90;;;25.80;99.90;;;;;;10457112;28;20208;-84
2023/08/20 07:26:12;;;;;;;12.10;11.20;;;25.90;99.90;;;;;;10439896;28;20230;-84
2023/08/20 07:31:14;;;;;;;12.70;11.40;;;25.90;99.90;;;;;;10455484;28;20194;-84
2023/08/20 07:36:18;;;;;;;12.20;11.00;;;26.00;99.90;;;;;;10456916;28;20639;-84
2023/08/20 07:41:22;;;;;;;11.87;10.93;;;26.20;99.90;;;;;;10455503;28;20669;-84
2023/08/20 07:46:24;;;;;;;12.47;11.47;;;26.40;99.90;;;;;;10456568;28;20214;-83
2023/08/20 07:51:27;;;;;;;12.60;11.40;;;26.70;99.90;;;;;;10453447;28;20255;-83
2023/08/20 07:56:29;;;;;;;12.70;11.60;;;27.00;99.90;;;;;;10453608;28;20224;-84
2023/08/20 08:01:31;;;;;;;11.03;10.07;;;27.20;99.90;;;;;;10450505;28;20202;-85
2023/08/20 08:06:35;;;;;;;11.77;10.73;;;27.20;99.90;;;;;;10450724;28;21074;-85
2023/08/20 08:11:37;;;;;;;11.00;10.20;;;27.20;99.90;;;;;;10443018;28;20256;-85
2023/08/20 08:16:39;;;;;;;11.33;10.43;;;27.20;99.90;;;;;;10405005;28;20210;-85
2023/08/20 08:21:44;;;;;;;12.13;10.53;;;27.40;99.90;;;;;;10449813;28;20204;-85
2023/08/20 08:26:46;;;;;;;11.13;10.13;;;27.50;99.90;;;;;;10449588;28;20229;-84
2023/08/20 08:31:48;;;;;;;13.77;12.63;;;27.50;99.90;;;;;;10449073;28;20197;-84
2023/08/20 08:36:51;;;;;;;14.20;12.67;;;27.50;99.90;;;;;;10449647;28;20217;-85
2023/08/20 08:41:58;;;;;;;11.40;10.47;;;27.60;99.90;;;;;;10413675;28;20194;-83
2023/08/20 08:47:02;;;;;;;18.87;12.37;;;27.60;99.90;;;;;;10450654;28;20226;-84
2023/08/20 08:52:06;;;;;;;13.07;11.90;;;27.60;99.90;;;;;;10450316;28;20276;-83
2023/08/20 08:57:09;;;;;;;12.43;11.27;;;27.60;99.90;;;;;;10418036;28;20213;-84
2023/08/20 09:02:12;;;;;;;12.43;11.43;;;27.60;99.90;;;;;;10432852;28;20233;-84
2023/08/20 09:07:16;;;;;;;13.33;12.07;;;27.70;99.90;;;;;;10439195;28;20237;-84
2023/08/20 09:12:20;;;;;;;13.10;11.83;;;27.80;99.90;;;;;;10457080;28;20685;-84
2023/08/20 09:17:25;;;;;;;12.80;11.70;;;27.80;99.90;;;;;;10456976;28;20335;-84
2023/08/20 09:22:29;;;;;;;12.10;10.87;;;27.80;99.90;;;;;;10442578;28;20701;-84
2023/08/20 09:27:40;;;;;;;13.23;11.70;;;27.70;99.90;;;;;;10457482;28;20855;-84
2023/08/20 09:32:42;;;;;;;12.30;11.10;;;27.80;99.90;;;;;;10455645;28;20222;-84
2023/08/20 09:37:45;;;;;;;13.07;11.97;;;27.80;99.90;;;;;;10458448;28;20233;-84
2023/08/20 09:42:48;;;;;;;17.57;12.30;;;28.00;99.90;;;;;;10421182;28;20226;-85
2023/08/20 09:47:55;;;;;;;11.80;10.80;;;28.30;99.90;;;;;;10418789;28;20224;-84
2023/08/20 09:53:05;;;;;;;12.83;11.73;;;28.60;99.90;;;;;;10444562;28;20229;-84
2023/08/20 09:58:08;;;;;;;11.90;10.70;;;29.10;99.90;;;;;;10422169;28;20333;-85
2023/08/20 10:03:11;;;;;;;11.53;10.37;;;29.50;99.90;;;;;;10425847;28;20726;-83
2023/08/20 10:08:16;;;;;;;10.90;9.90;;;29.90;99.90;;;;;;10434680;28;20226;-85
2023/08/20 10:13:18;;;;;;;11.23;10.40;;;30.30;99.90;;;;;;10431137;28;20307;-83
2023/08/20 10:18:21;;;;;;;14.00;10.67;;;30.50;99.90;;;;;;10436356;28;20198;-84
2023/08/20 10:23:25;;;;;;;12.13;11.20;;;30.60;99.90;;;;;;10448237;28;20228;-83
2023/08/20 10:28:28;;;;;;;15.50;14.27;;;30.40;99.90;;;;;;10459004;28;20218;-84
2023/08/20 10:33:30;;;;;;;10.80;9.90;;;30.10;99.90;;;;;;10441589;28;20254;-85
2023/08/20 10:38:37;;;;;;;11.53;10.50;;;29.80;99.90;;;;;;10428832;28;20202;-84
2023/08/20 10:43:40;;;;;;;11.10;10.10;;;29.50;99.90;;;;;;10449552;28;20288;-84
2023/08/20 10:48:43;;;;;;;11.80;10.60;;;29.30;99.90;;;;;;10487812;28;20240;-85
2023/08/20 10:54:03;;;;;;;11.20;10.33;;;29.10;99.90;;;;;;10499390;28;20217;-85
2023/08/20 10:59:08;;;;;;;9.97;9.27;;;29.00;99.90;;;;;;10491129;28;20261;-85
2023/08/20 11:04:10;;;;;;;10.00;9.27;;;28.80;99.90;;;;;;10480986;28;20217;-86
2023/08/20 11:09:15;;;;;;;10.00;9.23;;;28.70;99.90;;;;;;10455511;28;20722;-84
2023/08/20 11:14:18;;;;;;;9.87;9.17;;;28.70;99.90;;;;;;10446800;28;20236;-85
2023/08/20 11:19:23;;;;;;;10.80;9.70;;;28.60;99.90;;;;;;10438087;28;20244;-84
2023/08/20 11:24:29;;;;;;;11.33;10.23;;;28.60;99.90;;;;;;10467782;28;20705;-84
2023/08/20 11:29:31;;;;;;;10.53;9.63;;;28.50;99.90;;;;;;10426565;28;20284;-85
2023/08/20 11:34:34;;;;;;;10.57;9.50;;;28.50;99.90;;;;;;10436128;28;20709;-85
2023/08/20 11:39:39;;;;;;;10.13;9.23;;;28.50;99.90;;;;;;10447569;28;20225;-83
2023/08/20 11:44:45;;;;;;;11.53;10.63;;;28.50;99.90;;;;;;10463101;28;20315;-84
2023/08/20 11:49:47;;;;;;;9.13;8.53;;;28.50;99.90;;;;;;10432380;28;20209;-85
2023/08/20 11:54:50;;;;;;;9.23;8.43;;;28.50;99.90;;;;;;10447411;28;20233;-85
2023/08/20 11:59:52;;;;;;;11.03;9.10;;;28.50;99.90;;;;;;10430207;28;20263;-85
2023/08/20 12:04:57;;;;;;;10.40;9.50;;;28.30;99.90;;;;;;10424341;28;20218;-84
2023/08/20 12:10:20;;;;;;;10.03;9.20;;;28.30;99.90;;;;;;10430001;28;20229;-84
2023/08/20 12:15:23;;;;;;;8.93;8.23;;;28.30;99.90;;;;;;10438751;28;20270;-84
2023/08/20 12:20:29;;;;;;;9.67;8.87;;;28.30;99.90;;;;;;10437089;28;20204;-84
2023/08/20 12:25:35;;;;;;;8.73;8.03;;;28.30;99.90;;;;;;10468944;28;20249;-84
2023/08/20 12:30:38;;;;;;;9.37;8.37;;;28.30;99.90;;;;;;10426757;28;20201;-84
2023/08/20 12:35:40;;;;;;;9.83;9.03;;;28.40;99.90;;;;;;10419862;28;20218;-85
2023/08/20 12:40:44;;;;;;;8.57;7.97;;;28.40;99.90;;;;;;10437959;28;20243;-86
2023/08/20 12:45:46;;;;;;;10.23;9.33;;;28.40;99.90;;;;;;10474575;28;20832;-85
2023/08/20 12:50:48;;;;;;;8.50;7.70;;;28.40;99.90;;;;;;10445326;28;20189;-85
2023/08/20 12:55:51;;;;;;;8.50;7.73;;;28.50;99.90;;;;;;10452569;28;20214;-84
2023/08/20 13:00:53;;;;;;;8.10;7.50;;;28.70;99.90;;;;;;10453172;28;20676;-86
2023/08/20 13:05:57;;;;;;;10.43;8.53;;;28.70;99.90;;;;;;10431173;28;20296;-85
2023/08/20 13:11:04;;;;;;;8.73;7.40;;;28.90;99.90;;;;;;10444833;28;20203;-85
2023/08/20 13:16:07;;;;;;;8.17;7.37;;;28.90;99.90;;;;;;10475506;28;20229;-85
2023/08/20 13:21:09;;;;;;;9.73;8.00;;;28.80;99.90;;;;;;10428443;28;20254;-84
2023/08/20 13:26:12;;;;;;;8.47;7.77;;;28.80;99.90;;;;;;10437650;28;20309;-85
2023/08/20 13:31:14;;;;;;;9.10;8.30;;;28.90;99.90;;;;;;10463192;28;20225;-85
2023/08/20 13:36:16;;;;;;;8.27;7.57;;;28.90;99.90;;;;;;10469309;28;20280;-85
2023/08/20 13:41:20;;;;;;;8.23;7.53;;;29.00;99.90;;;;;;10430506;28;21029;-85
2023/08/20 13:46:22;;;;;;;7.80;7.10;;;29.10;99.90;;;;;;10440793;28;20229;-85
2023/08/20 13:51:25;;;;;;;11.30;8.90;;;29.00;99.90;;;;;;10475070;28;20202;-84
2023/08/20 13:56:29;;;;;;;8.00;7.20;;;29.10;99.90;;;;;;10437797;28;20221;-85
2023/08/20 14:01:31;;;;;;;8.00;7.40;;;29.20;99.90;;;;;;10444414;28;20787;-85
2023/08/20 14:06:33;;;;;;;10.50;7.70;;;29.20;99.90;;;;;;10429279;28;20840;-85
2023/08/20 14:11:36;;;;;;;8.80;7.50;;;29.20;99.90;;;;;;10463179;28;20198;-85
2023/08/20 14:16:38;;;;;;;7.77;7.17;;;29.10;99.90;;;;;;10477596;28;20241;-85
2023/08/20 14:21:41;;;;;;;10.27;9.13;;;29.10;99.90;;;;;;10444415;28;20264;-86
2023/08/20 14:26:44;;;;;;;9.23;8.00;;;29.10;99.90;;;;;;10454029;28;20214;-85
2023/08/20 14:31:46;;;;;;;9.23;8.33;;;29.10;99.90;;;;;;10454428;28;20576;-86
2023/08/20 14:36:49;;;;;;;8.90;8.10;;;29.20;99.90;;;;;;10450087;28;20225;-85
2023/08/20 14:41:52;;;;;;;8.20;7.60;;;29.20;99.90;;;;;;10449830;28;20232;-84
2023/08/20 14:46:54;;;;;;;9.17;8.27;;;29.30;99.90;;;;;;10450355;28;20201;-85
2023/08/20 14:51:56;;;;;;;8.23;7.60;;;29.20;99.90;;;;;;10451185;28;20767;-84
2023/08/20 14:57:00;;;;;;;8.53;7.80;;;29.20;99.90;;;;;;10453151;28;20237;-85
2023/08/20 15:02:02;;;;;;;8.33;7.73;;;29.20;99.90;;;;;;10452371;28;20222;-84
2023/08/20 15:07:04;;;;;;;7.57;7.07;;;29.10;99.90;;;;;;10456944;28;20677;-84
2023/08/20 15:12:08;;;;;;;8.00;7.40;;;29.10;99.90;;;;;;10444747;28;20221;-84
2023/08/20 15:17:11;;;;;;;8.07;7.37;;;29.00;99.90;;;;;;10473094;28;20198;-85
2023/08/20 15:22:14;;;;;;;11.50;7.00;;;29.00;99.90;;;;;;10447949;28;20274;-84
2023/08/20 15:27:18;;;;;;;7.10;6.50;;;29.10;99.90;;;;;;10456678;28;20222;-84
2023/08/20 15:32:21;;;;;;;7.10;6.50;;;29.30;99.90;;;;;;10455988;28;20252;-83
2023/08/20 15:37:23;;;;;;;8.30;7.60;;;29.50;99.90;;;;;;10455802;28;20198;-84
2023/08/20 15:42:27;;;;;;;10.00;9.20;;;29.50;99.90;;;;;;10444543;28;20245;-84
2023/08/20 15:47:29;;;;;;;8.20;6.90;;;29.50;99.30;;;;;;10447611;28;20218;-84
2023/08/20 15:52:31;;;;;;;6.60;6.10;;;29.50;99.40;;;;;;10455491;28;20608;-84
2023/08/20 15:57:34;;;;;;;6.70;6.20;;;29.40;99.30;;;;;;10453956;28;20214;-85
2023/08/20 16:02:36;;;;;;;10.50;6.40;;;29.30;99.60;;;;;;10448289;28;20313;-85
2023/08/20 16:07:39;;;;;;;7.90;6.03;;;29.20;99.30;;;;;;10422064;28;20271;-84
2023/08/20 16:12:42;;;;;;;6.40;5.80;;;29.10;99.90;;;;;;10456744;28;20218;-86
2023/08/20 16:17:44;;;;;;;6.27;5.63;;;29.00;99.90;;;;;;10458438;28;20190;-86
2023/08/20 16:22:46;;;;;;;6.53;5.70;;;28.90;99.90;;;;;;10431068;28;20253;-85
2023/08/20 16:27:50;;;;;;;6.80;6.20;;;28.90;99.90;;;;;;10431658;28;20288;-86
2023/08/20 16:32:52;;;;;;;6.90;6.40;;;28.80;99.90;;;;;;10447744;28;20310;-87
2023/08/20 16:37:54;;;;;;;7.93;5.90;;;28.80;99.90;;;;;;10448567;28;20280;-85
2023/08/20 16:43:00;;;;;;;8.00;7.20;;;28.80;99.90;;;;;;10429774;28;20221;-86
2023/08/20 16:48:02;;;;;;;7.63;6.60;;;28.80;99.90;;;;;;10422633;28;20226;-86
2023/08/20 16:53:04;;;;;;;6.50;6.03;;;28.80;99.90;;;;;;10419736;28;20633;-86
2023/08/20 16:58:08;;;;;;;6.10;5.70;;;28.70;99.90;;;;;;10424571;28;20202;-85
2023/08/20 17:03:10;;;;;;;7.40;6.07;;;28.60;99.90;;;;;;10435162;28;20230;-85
2023/08/20 17:08:12;;;;;;;8.30;6.27;;;28.50;99.90;;;;;;10422218;28;20221;-84
2023/08/20 17:13:15;;;;;;;6.90;6.40;;;28.50;99.90;;;;;;10464788;28;20218;-85
2023/08/20 17:18:18;;;;;;;6.43;5.93;;;28.40;99.90;;;;;;10430972;28;20205;-85
2023/08/20 17:23:20;;;;;;;7.70;7.00;;;28.30;99.90;;;;;;10424564;28;20229;-84
2023/08/20 17:28:23;;;;;;;7.80;7.03;;;28.20;99.90;;;;;;10444968;28;20637;-85
2023/08/20 17:33:25;;;;;;;6.50;6.10;;;28.20;99.90;;;;;;10446152;28;20359;-85
2023/08/20 17:38:28;;;;;;;6.87;6.27;;;28.20;99.90;;;;;;10460096;28;20208;-84
2023/08/20 17:43:31;;;;;;;8.90;7.97;;;28.10;99.90;;;;;;10431398;28;20217;-85
2023/08/20 17:48:34;;;;;;;6.90;6.30;;;28.10;99.90;;;;;;10445982;28;20694;-84
2023/08/20 17:53:36;;;;;;;7.30;6.33;;;28.10;99.90;;;;;;10448935;28;20276;-85
2023/08/20 17:58:39;;;;;;;7.00;6.50;;;28.10;99.90;;;;;;10449393;28;20198;-84
2023/08/20 18:03:41;;;;;;;6.40;5.77;;;28.00;99.90;;;;;;10442200;28;20230;-84
2023/08/20 18:08:44;;;;;;;7.13;6.57;;;28.00;99.90;;;;;;10448206;28;20720;-86
2023/08/20 18:13:48;;;;;;;7.97;7.17;;;28.00;99.90;;;;;;10462652;28;20251;-84
2023/08/20 18:18:50;;;;;;;8.10;7.27;;;27.90;99.90;;;;;;10429825;28;20190;-84
2023/08/20 18:23:52;;;;;;;7.80;7.00;;;27.90;99.90;;;;;;10429779;28;20336;-84
2023/08/20 18:28:57;;;;;;;7.20;6.60;;;27.80;99.90;;;;;;10464231;28;20902;-85
2023/08/20 18:34:00;;;;;;;7.10;5.70;;;27.80;99.90;;;;;;10435946;28;20670;-85
2023/08/20 18:39:04;;;;;;;8.93;8.03;;;27.80;99.90;;;;;;10461354;28;20484;-85
2023/08/20 18:44:12;;;;;;;7.20;6.20;;;27.80;99.90;;;;;;10447857;28;20225;-85
2023/08/20 18:49:14;;;;;;;7.37;6.60;;;27.80;99.90;;;;;;10461001;28;20340;-86
2023/08/20 18:54:16;;;;;;;8.07;6.80;;;27.70;99.90;;;;;;10445622;28;20926;-84
2023/08/20 18:59:20;;;;;;;7.37;6.77;;;27.60;99.90;;;;;;10445815;28;20747;-86
2023/08/20 19:04:22;;;;;;;7.60;7.10;;;27.60;99.90;;;;;;10430722;28;20262;-84
2023/08/20 19:09:27;;;;;;;14.23;7.27;;;27.50;99.90;;;;;;10427681;28;20226;-85
2023/08/20 19:14:31;;;;;;;8.23;7.47;;;27.40;99.90;;;;;;10472182;28;20304;-83
2023/08/20 19:19:33;;;;;;;7.90;7.10;;;27.30;99.90;;;;;;10463174;28;20726;-83
2023/08/20 19:24:35;;;;;;;7.23;6.73;;;27.20;99.90;;;;;;10443367;28;20309;-83
2023/08/20 19:29:38;;;;;;;7.20;6.80;;;27.20;99.90;;;;;;10427515;28;20229;-84
2023/08/20 19:34:40;;;;;;;8.27;7.47;;;27.10;99.90;;;;;;10446877;28;20712;-84
2023/08/20 19:39:42;;;;;;;8.57;7.77;;;27.00;99.90;;;;;;10464447;28;20197;-84
2023/08/20 19:44:46;;;;;;;8.37;7.40;;;27.00;99.90;;;;;;10467149;28;20217;-83
2023/08/20 19:49:48;;;;;;;7.30;6.70;;;27.00;99.90;;;;;;10490873;28;20209;-83
2023/08/20 19:54:50;;;;;;;8.67;7.20;;;26.90;99.90;;;;;;10516764;28;20205;-84
2023/08/20 19:59:54;;;;;;;7.70;7.00;;;26.90;99.90;;;;;;10477496;28;20198;-83
2023/08/20 20:04:56;;;;;;;7.13;6.43;;;26.90;99.90;;;;;;10472698;28;20198;-84
2023/08/20 20:09:58;;;;;;;7.57;6.97;;;26.80;99.90;;;;;;10484648;28;20232;-84
2023/08/20 20:15:02;;;;;;;10.97;7.33;;;26.80;99.90;;;;;;10431566;28;20221;-82
2023/08/20 20:20:10;;;;;;;8.87;7.47;;;26.70;99.90;;;;;;10440707;28;20197;-83
2023/08/20 20:25:13;;;;;;;8.10;7.50;;;26.70;99.90;;;;;;10454149;28;20272;-83
2023/08/20 20:30:16;;;;;;;7.23;6.53;;;26.70;99.90;;;;;;10457014;28;20214;-84
2023/08/20 20:35:20;;;;;;;8.43;7.60;;;26.70;99.90;;;;;;10446837;28;20716;-83
2023/08/20 20:40:22;;;;;;;8.57;7.67;;;26.70;99.90;;;;;;10428968;28;20545;-83
2023/08/20 20:45:25;;;;;;;11.47;8.20;;;26.60;99.90;;;;;;10469310;28;20217;-84
2023/08/20 20:50:27;;;;;;;11.80;7.87;;;26.50;99.90;;;;;;10453318;28;20225;-83
2023/08/20 20:55:29;;;;;;;8.43;7.63;;;26.50;99.90;;;;;;10453036;28;20279;-84
2023/08/20 21:00:33;;;;;;;8.43;6.60;;;26.40;99.90;;;;;;10468313;28;20266;-83
2023/08/20 21:05:35;;;;;;;7.63;6.93;;;26.40;99.90;;;;;;10481563;28;20224;-84
2023/08/20 21:10:37;;;;;;;8.03;7.43;;;26.40;99.90;;;;;;10439111;28;20233;-84
2023/08/20 21:15:41;;;;;;;8.17;7.23;;;26.30;99.90;;;;;;10465144;28;20209;-84
2023/08/20 21:20:43;;;;;;;7.93;7.13;;;26.20;99.90;;;;;;10461550;28;20198;-83
2023/08/20 21:25:45;;;;;;;7.43;6.90;;;26.20;99.90;;;;;;10477630;28;20688;-84
2023/08/20 21:30:48;;;;;;;7.57;6.87;;;26.20;99.90;;;;;;10464177;28;20217;-83
2023/08/20 21:35:50;;;;;;;7.87;7.17;;;26.20;99.90;;;;;;10441682;28;20250;-84
2023/08/20 21:40:52;;;;;;;8.00;7.13;;;26.10;99.90;;;;;;10454378;28;20514;-83
2023/08/20 21:45:56;;;;;;;7.50;6.80;;;26.10;99.90;;;;;;10458373;28;20274;-83
2023/08/20 21:50:58;;;;;;;8.07;7.40;;;26.10;99.90;;;;;;10477550;28;20233;-83
2023/08/20 21:56:00;;;;;;;8.17;7.37;;;26.00;99.90;;;;;;10462281;28;20222;-83
2023/08/20 22:01:04;;;;;;;8.03;7.30;;;26.00;99.90;;;;;;10450835;28;20225;-83
2023/08/20 22:06:06;;;;;;;7.97;7.27;;;26.00;99.90;;;;;;10427463;28;20226;-84
2023/08/20 22:11:08;;;;;;;7.97;7.27;;;26.00;99.90;;;;;;10452175;28;20561;-84
2023/08/20 22:16:12;;;;;;;8.47;7.87;;;25.90;99.90;;;;;;10452449;28;20298;-84
2023/08/20 22:21:14;;;;;;;8.00;7.20;;;25.90;99.90;;;;;;10452262;28;20699;-83
2023/08/20 22:26:16;;;;;;;7.37;6.87;;;25.90;99.90;;;;;;10453062;28;20222;-84
2023/08/20 22:31:20;;;;;;;7.63;6.60;;;25.90;99.90;;;;;;10451389;28;20225;-83
2023/08/20 22:36:23;;;;;;;7.47;6.77;;;25.90;99.90;;;;;;10450396;28;20222;-83
2023/08/20 22:41:25;;;;;;;8.73;7.83;;;25.90;99.90;;;;;;10451477;28;20248;-84
2023/08/20 22:46:28;;;;;;;7.60;6.90;;;25.90;99.90;;;;;;10433671;28;20293;-83
2023/08/20 22:51:30;;;;;;;7.83;7.30;;;25.90;99.90;;;;;;10431457;28;20667;-84
2023/08/20 22:56:32;;;;;;;8.43;7.60;;;25.80;99.90;;;;;;10456002;28;20228;-83
2023/08/20 23:01:36;;;;;;;7.77;7.13;;;25.80;99.90;;;;;;10449772;28;20200;-84
2023/08/20 23:06:38;;;;;;;7.27;6.67;;;25.80;99.90;;;;;;10465684;28;20226;-84
2023/08/20 23:11:40;;;;;;;11.30;6.97;;;25.80;99.90;;;;;;10435265;28;20329;-84
2023/08/20 23:16:43;;;;;;;7.73;7.00;;;25.70;99.90;;;;;;10451291;28;20312;-84
2023/08/20 23:21:45;;;;;;;7.87;7.07;;;25.70;99.90;;;;;;10460310;28;20220;-84
2023/08/20 23:26:47;;;;;;;7.80;7.07;;;25.70;99.90;;;;;;10450395;28;20723;-84
2023/08/20 23:31:51;;;;;;;7.47;6.93;;;25.70;99.90;;;;;;10430929;28;20229;-84
2023/08/20 23:36:53;;;;;;;7.50;6.80;;;25.70;99.90;;;;;;10439626;28;20225;-83
2023/08/20 23:41:56;;;;;;;7.13;6.60;;;25.60;99.90;;;;;;10431444;28;20194;-83
2023/08/20 23:46:59;;;;;;;8.27;7.37;;;25.60;99.90;;;;;;10449847;28;20221;-84
2023/08/20 23:52:02;;;;;;;7.40;6.73;;;25.60;99.90;;;;;;10462954;28;20210;-84
2023/08/20 23:57:04;;;;;;;7.27;6.60;;;25.60;99.90;;;;;;10441159;28;20209;-83
